sensor_id;sensor_type;location;lat;lon;timestamp;P1;durP1;ratioP1;P2;durP2;ratioP2
50126;SDS011;36024;47.974;16.398;2023-11-19T00:00:43;10.90;;;7.53;;
50126;SDS011;36024;47.974;16.398;2023-11-19T00:03:22;9.23;;;7.97;;
50126;SDS011;36024;47.974;16.398;2023-11-19T00:05:52;8.77;;;7.87;;
50126;SDS011;36024;47.974;16.398;2023-11-19T00:08:19;9.00;;;8.00;;
50126;SDS011;36024;47.974;16.398;2023-11-19T00:10:46;8.87;;;7.90;;
50126;SDS011;36024;47.974;16.398;2023-11-19T00:13:15;8.80;;;7.70;;
50126;SDS011;36024;47.974;16.398;2023-11-19T00:15:47;10.03;;;8.00;;
50126;SDS011;36024;47.974;16.398;2023-11-19T00:18:15;9.50;;;7.77;;
50126;SDS011;36024;47.974;16.398;2023-11-19T00:20:51;10.00;;;8.17;;
50126;SDS011;36024;47.974;16.398;2023-11-19T00:23:19;9.20;;;8.30;;
50126;SDS011;36024;47.974;16.398;2023-11-19T00:25:48;8.87;;;7.60;;
50126;SDS011;36024;47.974;16.398;2023-11-19T00:28:17;10.07;;;7.73;;
50126;SDS011;36024;47.974;16.398;2023-11-19T00:30:46;8.83;;;7.67;;
50126;SDS011;36024;47.974;16.398;2023-11-19T00:33:17;8.00;;;7.20;;
50126;SDS011;36024;47.974;16.398;2023-11-19T00:35:45;7.83;;;7.03;;
50126;SDS011;36024;47.974;16.398;2023-11-19T00:38:13;8.30;;;7.27;;
50126;SDS011;36024;47.974;16.398;2023-11-19T00:40:45;8.10;;;7.30;;
50126;SDS011;36024;47.974;16.398;2023-11-19T00:43:16;8.03;;;6.97;;
50126;SDS011;36024;47.974;16.398;2023-11-19T00:45:44;8.27;;;6.57;;
50126;SDS011;36024;47.974;16.398;2023-11-19T00:48:11;7.37;;;6.57;;
50126;SDS011;36024;47.974;16.398;2023-11-19T00:50:42;7.23;;;6.13;;
50126;SDS011;36024;47.974;16.398;2023-11-19T00:53:12;6.83;;;6.23;;
50126;SDS011;36024;47.974;16.398;2023-11-19T00:55:45;7.07;;;6.37;;
50126;SDS011;36024;47.974;16.398;2023-11-19T00:58:13;8.67;;;7.03;;
50126;SDS011;36024;47.974;16.398;2023-11-19T01:00:42;7.47;;;6.40;;
50126;SDS011;36024;47.974;16.398;2023-11-19T01:03:11;8.00;;;7.20;;
50126;SDS011;36024;47.974;16.398;2023-11-19T01:05:44;7.67;;;6.80;;
50126;SDS011;36024;47.974;16.398;2023-11-19T01:08:16;7.83;;;7.03;;
50126;SDS011;36024;47.974;16.398;2023-11-19T01:10:44;7.73;;;7.03;;
50126;SDS011;36024;47.974;16.398;2023-11-19T01:13:11;7.30;;;6.53;;
50126;SDS011;36024;47.974;16.398;2023-11-19T01:15:40;9.03;;;7.80;;
50126;SDS011;36024;47.974;16.398;2023-11-19T01:18:09;9.97;;;7.17;;
50126;SDS011;36024;47.974;16.398;2023-11-19T01:20:40;8.10;;;7.30;;
50126;SDS011;36024;47.974;16.398;2023-11-19T01:23:12;9.20;;;7.77;;
50126;SDS011;36024;47.974;16.398;2023-11-19T01:25:40;9.00;;;8.10;;
50126;SDS011;36024;47.974;16.398;2023-11-19T01:28:08;9.07;;;7.50;;
50126;SDS011;36024;47.974;16.398;2023-11-19T01:30:35;8.83;;;7.57;;
50126;SDS011;36024;47.974;16.398;2023-11-19T01:33:03;8.43;;;7.60;;
50126;SDS011;36024;47.974;16.398;2023-11-19T01:35:31;9.07;;;8.17;;
50126;SDS011;36024;47.974;16.398;2023-11-19T01:38:02;7.93;;;7.13;;
50126;SDS011;36024;47.974;16.398;2023-11-19T01:40:38;7.60;;;6.80;;
50126;SDS011;36024;47.974;16.398;2023-11-19T01:43:09;8.00;;;7.17;;
50126;SDS011;36024;47.974;16.398;2023-11-19T01:45:43;8.33;;;7.53;;
50126;SDS011;36024;47.974;16.398;2023-11-19T01:48:15;8.57;;;7.43;;
50126;SDS011;36024;47.974;16.398;2023-11-19T01:50:42;7.80;;;7.00;;
50126;SDS011;36024;47.974;16.398;2023-11-19T01:53:11;8.07;;;7.27;;
50126;SDS011;36024;47.974;16.398;2023-11-19T01:55:39;7.37;;;6.47;;
50126;SDS011;36024;47.974;16.398;2023-11-19T01:58:11;7.20;;;6.50;;
50126;SDS011;36024;47.974;16.398;2023-11-19T02:00:39;10.23;;;6.93;;
50126;SDS011;36024;47.974;16.398;2023-11-19T02:03:10;7.67;;;6.87;;
50126;SDS011;36024;47.974;16.398;2023-11-19T02:05:37;7.37;;;6.57;;
50126;SDS011;36024;47.974;16.398;2023-11-19T02:08:06;7.10;;;6.37;;
50126;SDS011;36024;47.974;16.398;2023-11-19T02:10:37;7.03;;;6.33;;
50126;SDS011;36024;47.974;16.398;2023-11-19T02:13:04;7.53;;;6.17;;
50126;SDS011;36024;47.974;16.398;2023-11-19T02:15:35;7.80;;;7.07;;
50126;SDS011;36024;47.974;16.398;2023-11-19T02:18:19;7.23;;;6.50;;
50126;SDS011;36024;47.974;16.398;2023-11-19T02:20:50;8.30;;;7.17;;
50126;SDS011;36024;47.974;16.398;2023-11-19T02:23:20;7.37;;;6.17;;
50126;SDS011;36024;47.974;16.398;2023-11-19T02:25:53;7.20;;;6.50;;
50126;SDS011;36024;47.974;16.398;2023-11-19T02:28:29;7.33;;;6.53;;
50126;SDS011;36024;47.974;16.398;2023-11-19T02:31:01;6.80;;;6.10;;
50126;SDS011;36024;47.974;16.398;2023-11-19T02:33:33;6.93;;;6.23;;
50126;SDS011;36024;47.974;16.398;2023-11-19T02:36:02;7.93;;;6.53;;
50126;SDS011;36024;47.974;16.398;2023-11-19T02:38:30;7.50;;;6.70;;
50126;SDS011;36024;47.974;16.398;2023-11-19T02:41:03;6.40;;;5.80;;
50126;SDS011;36024;47.974;16.398;2023-11-19T02:43:33;7.30;;;6.10;;
50126;SDS011;36024;47.974;16.398;2023-11-19T02:46:05;7.23;;;6.43;;
50126;SDS011;36024;47.974;16.398;2023-11-19T02:48:39;6.47;;;5.87;;
50126;SDS011;36024;47.974;16.398;2023-11-19T02:51:09;6.47;;;5.87;;
50126;SDS011;36024;47.974;16.398;2023-11-19T02:53:37;7.70;;;6.30;;
50126;SDS011;36024;47.974;16.398;2023-11-19T02:56:07;6.40;;;5.80;;
50126;SDS011;36024;47.974;16.398;2023-11-19T02:58:55;6.47;;;5.87;;
50126;SDS011;36024;47.974;16.398;2023-11-19T03:01:24;7.33;;;6.50;;
50126;SDS011;36024;47.974;16.398;2023-11-19T03:03:59;6.63;;;5.97;;
50126;SDS011;36024;47.974;16.398;2023-11-19T03:06:32;7.93;;;7.13;;
50126;SDS011;36024;47.974;16.398;2023-11-19T03:09:00;7.87;;;7.07;;
50126;SDS011;36024;47.974;16.398;2023-11-19T03:11:37;7.33;;;6.60;;
50126;SDS011;36024;47.974;16.398;2023-11-19T03:14:05;6.80;;;6.20;;
50126;SDS011;36024;47.974;16.398;2023-11-19T03:16:39;6.77;;;6.17;;
50126;SDS011;36024;47.974;16.398;2023-11-19T03:19:08;6.30;;;5.80;;
50126;SDS011;36024;47.974;16.398;2023-11-19T03:21:36;6.33;;;5.73;;
50126;SDS011;36024;47.974;16.398;2023-11-19T03:24:04;6.43;;;5.80;;
50126;SDS011;36024;47.974;16.398;2023-11-19T03:26:35;6.27;;;5.67;;
50126;SDS011;36024;47.974;16.398;2023-11-19T03:29:05;6.67;;;6.07;;
50126;SDS011;36024;47.974;16.398;2023-11-19T03:31:41;6.50;;;5.90;;
50126;SDS011;36024;47.974;16.398;2023-11-19T03:34:10;9.43;;;6.73;;
50126;SDS011;36024;47.974;16.398;2023-11-19T03:36:38;9.53;;;7.13;;
50126;SDS011;36024;47.974;16.398;2023-11-19T03:39:09;7.23;;;6.53;;
50126;SDS011;36024;47.974;16.398;2023-11-19T03:41:38;7.73;;;7.00;;
50126;SDS011;36024;47.974;16.398;2023-11-19T03:44:08;8.00;;;7.20;;
50126;SDS011;36024;47.974;16.398;2023-11-19T03:46:40;7.63;;;6.87;;
50126;SDS011;36024;47.974;16.398;2023-11-19T03:49:08;8.83;;;7.47;;
50126;SDS011;36024;47.974;16.398;2023-11-19T03:51:37;9.87;;;8.30;;
50126;SDS011;36024;47.974;16.398;2023-11-19T03:54:06;12.03;;;8.77;;
50126;SDS011;36024;47.974;16.398;2023-11-19T03:56:34;8.83;;;7.93;;
50126;SDS011;36024;47.974;16.398;2023-11-19T03:59:02;12.13;;;9.13;;
50126;SDS011;36024;47.974;16.398;2023-11-19T04:01:31;11.13;;;8.73;;
50126;SDS011;36024;47.974;16.398;2023-11-19T04:04:00;9.47;;;8.47;;
50126;SDS011;36024;47.974;16.398;2023-11-19T04:06:29;9.50;;;8.60;;
50126;SDS011;36024;47.974;16.398;2023-11-19T04:08:57;8.90;;;8.00;;
50126;SDS011;36024;47.974;16.398;2023-11-19T04:11:30;9.50;;;8.30;;
50126;SDS011;36024;47.974;16.398;2023-11-19T04:13:58;9.53;;;8.20;;
50126;SDS011;36024;47.974;16.398;2023-11-19T04:16:27;10.47;;;9.20;;
50126;SDS011;36024;47.974;16.398;2023-11-19T04:18:59;10.23;;;9.17;;
50126;SDS011;36024;47.974;16.398;2023-11-19T04:21:28;9.43;;;8.20;;
50126;SDS011;36024;47.974;16.398;2023-11-19T04:23:58;9.73;;;8.57;;
50126;SDS011;36024;47.974;16.398;2023-11-19T04:26:25;9.57;;;8.67;;
50126;SDS011;36024;47.974;16.398;2023-11-19T04:28:56;9.20;;;8.23;;
50126;SDS011;36024;47.974;16.398;2023-11-19T04:31:29;9.83;;;8.87;;
50126;SDS011;36024;47.974;16.398;2023-11-19T04:34:00;9.33;;;8.27;;
50126;SDS011;36024;47.974;16.398;2023-11-19T04:36:27;9.80;;;8.03;;
50126;SDS011;36024;47.974;16.398;2023-11-19T04:39:02;9.10;;;8.20;;
50126;SDS011;36024;47.974;16.398;2023-11-19T04:41:46;9.67;;;8.67;;
50126;SDS011;36024;47.974;16.398;2023-11-19T04:44:20;9.40;;;8.23;;
50126;SDS011;36024;47.974;16.398;2023-11-19T04:46:51;9.50;;;8.60;;
50126;SDS011;36024;47.974;16.398;2023-11-19T04:49:18;9.97;;;8.90;;
50126;SDS011;36024;47.974;16.398;2023-11-19T04:51:47;9.67;;;8.67;;
50126;SDS011;36024;47.974;16.398;2023-11-19T04:54:18;9.23;;;8.33;;
50126;SDS011;36024;47.974;16.398;2023-11-19T04:56:46;8.83;;;7.93;;
50126;SDS011;36024;47.974;16.398;2023-11-19T04:59:14;10.03;;;8.40;;
50126;SDS011;36024;47.974;16.398;2023-11-19T05:01:45;9.43;;;8.43;;
50126;SDS011;36024;47.974;16.398;2023-11-19T05:04:15;9.20;;;8.30;;
50126;SDS011;36024;47.974;16.398;2023-11-19T05:06:46;9.20;;;8.30;;
50126;SDS011;36024;47.974;16.398;2023-11-19T05:09:13;8.93;;;8.07;;
50126;SDS011;36024;47.974;16.398;2023-11-19T05:11:40;8.67;;;7.87;;
50126;SDS011;36024;47.974;16.398;2023-11-19T05:14:11;9.67;;;8.67;;
50126;SDS011;36024;47.974;16.398;2023-11-19T05:16:41;9.30;;;8.40;;
50126;SDS011;36024;47.974;16.398;2023-11-19T05:19:09;11.67;;;8.83;;
50126;SDS011;36024;47.974;16.398;2023-11-19T05:21:45;9.30;;;8.40;;
50126;SDS011;36024;47.974;16.398;2023-11-19T05:24:13;9.77;;;8.80;;
50126;SDS011;36024;47.974;16.398;2023-11-19T05:26:44;9.53;;;8.63;;
50126;SDS011;36024;47.974;16.398;2023-11-19T05:29:13;9.43;;;8.37;;
50126;SDS011;36024;47.974;16.398;2023-11-19T05:31:42;9.53;;;8.63;;
50126;SDS011;36024;47.974;16.398;2023-11-19T05:34:18;9.47;;;8.57;;
50126;SDS011;36024;47.974;16.398;2023-11-19T05:36:48;10.27;;;8.67;;
50126;SDS011;36024;47.974;16.398;2023-11-19T05:39:17;10.10;;;9.10;;
50126;SDS011;36024;47.974;16.398;2023-11-19T05:41:46;9.90;;;8.73;;
50126;SDS011;36024;47.974;16.398;2023-11-19T05:44:16;10.27;;;9.00;;
50126;SDS011;36024;47.974;16.398;2023-11-19T05:46:48;9.53;;;8.63;;
50126;SDS011;36024;47.974;16.398;2023-11-19T05:49:16;9.73;;;8.73;;
50126;SDS011;36024;47.974;16.398;2023-11-19T05:51:46;9.90;;;8.90;;
50126;SDS011;36024;47.974;16.398;2023-11-19T05:54:25;10.03;;;9.03;;
50126;SDS011;36024;47.974;16.398;2023-11-19T05:56:55;11.07;;;9.83;;
50126;SDS011;36024;47.974;16.398;2023-11-19T05:59:29;10.47;;;9.47;;
50126;SDS011;36024;47.974;16.398;2023-11-19T06:01:57;11.30;;;9.93;;
50126;SDS011;36024;47.974;16.398;2023-11-19T06:04:30;10.30;;;9.20;;
50126;SDS011;36024;47.974;16.398;2023-11-19T06:06:58;10.53;;;9.53;;
50126;SDS011;36024;47.974;16.398;2023-11-19T06:09:39;10.10;;;9.07;;
50126;SDS011;36024;47.974;16.398;2023-11-19T06:12:09;10.53;;;9.53;;
50126;SDS011;36024;47.974;16.398;2023-11-19T06:14:40;9.57;;;8.67;;
50126;SDS011;36024;47.974;16.398;2023-11-19T06:17:11;10.13;;;9.13;;
50126;SDS011;36024;47.974;16.398;2023-11-19T06:19:39;11.67;;;9.67;;
50126;SDS011;36024;47.974;16.398;2023-11-19T06:22:13;10.07;;;8.83;;
50126;SDS011;36024;47.974;16.398;2023-11-19T06:24:43;10.33;;;9.33;;
50126;SDS011;36024;47.974;16.398;2023-11-19T06:27:11;10.87;;;9.77;;
50126;SDS011;36024;47.974;16.398;2023-11-19T06:29:51;11.43;;;9.27;;
50126;SDS011;36024;47.974;16.398;2023-11-19T06:32:19;10.30;;;8.87;;
50126;SDS011;36024;47.974;16.398;2023-11-19T06:34:50;10.40;;;9.33;;
50126;SDS011;36024;47.974;16.398;2023-11-19T06:37:23;10.50;;;9.40;;
50126;SDS011;36024;47.974;16.398;2023-11-19T06:39:51;10.43;;;9.33;;
50126;SDS011;36024;47.974;16.398;2023-11-19T06:42:19;9.63;;;8.70;;
50126;SDS011;36024;47.974;16.398;2023-11-19T06:44:53;10.10;;;9.07;;
50126;SDS011;36024;47.974;16.398;2023-11-19T06:47:25;9.73;;;8.83;;
50126;SDS011;36024;47.974;16.398;2023-11-19T06:49:56;10.33;;;9.23;;
50126;SDS011;36024;47.974;16.398;2023-11-19T06:52:24;10.53;;;9.47;;
50126;SDS011;36024;47.974;16.398;2023-11-19T06:54:52;9.37;;;8.47;;
50126;SDS011;36024;47.974;16.398;2023-11-19T06:57:19;10.13;;;8.87;;
50126;SDS011;36024;47.974;16.398;2023-11-19T06:59:51;9.67;;;8.77;;
50126;SDS011;36024;47.974;16.398;2023-11-19T07:02:32;10.77;;;8.43;;
50126;SDS011;36024;47.974;16.398;2023-11-19T07:05:05;10.73;;;9.57;;
50126;SDS011;36024;47.974;16.398;2023-11-19T07:07:33;9.77;;;8.87;;
50126;SDS011;36024;47.974;16.398;2023-11-19T07:10:01;10.43;;;9.43;;
50126;SDS011;36024;47.974;16.398;2023-11-19T07:12:29;10.67;;;9.57;;
50126;SDS011;36024;47.974;16.398;2023-11-19T07:14:56;9.93;;;8.93;;
50126;SDS011;36024;47.974;16.398;2023-11-19T07:17:24;9.93;;;9.03;;
50126;SDS011;36024;47.974;16.398;2023-11-19T07:19:51;9.80;;;8.90;;
50126;SDS011;36024;47.974;16.398;2023-11-19T07:22:18;9.67;;;8.73;;
50126;SDS011;36024;47.974;16.398;2023-11-19T07:24:47;9.80;;;8.90;;
50126;SDS011;36024;47.974;16.398;2023-11-19T07:27:18;9.53;;;8.63;;
50126;SDS011;36024;47.974;16.398;2023-11-19T07:29:51;8.70;;;7.90;;
50126;SDS011;36024;47.974;16.398;2023-11-19T07:32:20;9.30;;;8.40;;
50126;SDS011;36024;47.974;16.398;2023-11-19T07:34:48;9.50;;;8.60;;
50126;SDS011;36024;47.974;16.398;2023-11-19T07:37:15;9.60;;;8.70;;
50126;SDS011;36024;47.974;16.398;2023-11-19T07:39:44;9.30;;;8.30;;
50126;SDS011;36024;47.974;16.398;2023-11-19T07:42:11;9.57;;;8.57;;
50126;SDS011;36024;47.974;16.398;2023-11-19T07:44:43;9.40;;;8.60;;
50126;SDS011;36024;47.974;16.398;2023-11-19T07:47:28;9.90;;;8.90;;
50126;SDS011;36024;47.974;16.398;2023-11-19T07:50:00;9.57;;;8.67;;
50126;SDS011;36024;47.974;16.398;2023-11-19T07:52:28;10.77;;;9.67;;
50126;SDS011;36024;47.974;16.398;2023-11-19T07:54:56;9.40;;;8.60;;
50126;SDS011;36024;47.974;16.398;2023-11-19T07:57:25;10.77;;;8.90;;
50126;SDS011;36024;47.974;16.398;2023-11-19T07:59:57;9.87;;;8.73;;
50126;SDS011;36024;47.974;16.398;2023-11-19T08:02:25;9.67;;;8.73;;
50126;SDS011;36024;47.974;16.398;2023-11-19T08:04:52;9.63;;;8.73;;
50126;SDS011;36024;47.974;16.398;2023-11-19T08:07:25;10.37;;;8.97;;
50126;SDS011;36024;47.974;16.398;2023-11-19T08:09:53;9.87;;;8.87;;
50126;SDS011;36024;47.974;16.398;2023-11-19T08:12:22;10.33;;;8.97;;
50126;SDS011;36024;47.974;16.398;2023-11-19T08:14:52;8.90;;;8.10;;
50126;SDS011;36024;47.974;16.398;2023-11-19T08:17:19;8.37;;;7.57;;
50126;SDS011;36024;47.974;16.398;2023-11-19T08:19:46;8.47;;;7.60;;
50126;SDS011;36024;47.974;16.398;2023-11-19T08:22:14;8.60;;;7.83;;
50126;SDS011;36024;47.974;16.398;2023-11-19T08:24:45;9.30;;;8.43;;
50126;SDS011;36024;47.974;16.398;2023-11-19T08:27:14;9.50;;;8.60;;
50126;SDS011;36024;47.974;16.398;2023-11-19T08:29:43;10.60;;;9.53;;
50126;SDS011;36024;47.974;16.398;2023-11-19T08:32:11;9.93;;;8.87;;
50126;SDS011;36024;47.974;16.398;2023-11-19T08:34:41;8.67;;;7.87;;
50126;SDS011;36024;47.974;16.398;2023-11-19T08:37:09;7.63;;;6.97;;
50126;SDS011;36024;47.974;16.398;2023-11-19T08:39:39;8.00;;;7.20;;
50126;SDS011;36024;47.974;16.398;2023-11-19T08:42:09;8.80;;;7.20;;
50126;SDS011;36024;47.974;16.398;2023-11-19T08:44:36;9.20;;;8.30;;
50126;SDS011;36024;47.974;16.398;2023-11-19T08:47:04;8.13;;;7.33;;
50126;SDS011;36024;47.974;16.398;2023-11-19T08:49:32;9.27;;;8.47;;
50126;SDS011;36024;47.974;16.398;2023-11-19T08:52:00;8.67;;;7.97;;
50126;SDS011;36024;47.974;16.398;2023-11-19T08:54:29;7.73;;;7.07;;
50126;SDS011;36024;47.974;16.398;2023-11-19T08:56:57;7.53;;;6.83;;
50126;SDS011;36024;47.974;16.398;2023-11-19T08:59:24;7.13;;;6.53;;
50126;SDS011;36024;47.974;16.398;2023-11-19T09:01:58;7.37;;;6.77;;
50126;SDS011;36024;47.974;16.398;2023-11-19T09:04:27;7.63;;;7.03;;
50126;SDS011;36024;47.974;16.398;2023-11-19T09:06:57;8.53;;;7.73;;
50126;SDS011;36024;47.974;16.398;2023-11-19T09:09:29;7.93;;;7.23;;
50126;SDS011;36024;47.974;16.398;2023-11-19T09:11:57;8.03;;;7.23;;
50126;SDS011;36024;47.974;16.398;2023-11-19T09:14:28;8.30;;;7.40;;
50126;SDS011;36024;47.974;16.398;2023-11-19T09:16:58;7.93;;;7.13;;
50126;SDS011;36024;47.974;16.398;2023-11-19T09:19:26;7.90;;;7.20;;
50126;SDS011;36024;47.974;16.398;2023-11-19T09:21:58;8.23;;;7.43;;
50126;SDS011;36024;47.974;16.398;2023-11-19T09:24:28;7.77;;;7.07;;
50126;SDS011;36024;47.974;16.398;2023-11-19T09:27:00;6.90;;;6.30;;
50126;SDS011;36024;47.974;16.398;2023-11-19T09:29:31;9.50;;;8.60;;
50126;SDS011;36024;47.974;16.398;2023-11-19T09:32:08;9.20;;;8.40;;
50126;SDS011;36024;47.974;16.398;2023-11-19T09:34:39;7.83;;;7.03;;
50126;SDS011;36024;47.974;16.398;2023-11-19T09:37:08;9.57;;;8.57;;
50126;SDS011;36024;47.974;16.398;2023-11-19T09:39:43;10.93;;;8.53;;
50126;SDS011;36024;47.974;16.398;2023-11-19T09:42:12;7.63;;;6.83;;
50126;SDS011;36024;47.974;16.398;2023-11-19T09:44:43;8.50;;;6.13;;
50126;SDS011;36024;47.974;16.398;2023-11-19T09:47:16;5.30;;;4.80;;
50126;SDS011;36024;47.974;16.398;2023-11-19T09:49:44;5.67;;;5.17;;
50126;SDS011;36024;47.974;16.398;2023-11-19T09:52:11;5.63;;;4.93;;
50126;SDS011;36024;47.974;16.398;2023-11-19T09:54:39;6.23;;;5.70;;
50126;SDS011;36024;47.974;16.398;2023-11-19T09:57:08;6.77;;;6.17;;
50126;SDS011;36024;47.974;16.398;2023-11-19T09:59:41;7.57;;;6.87;;
50126;SDS011;36024;47.974;16.398;2023-11-19T10:02:13;5.97;;;5.37;;
50126;SDS011;36024;47.974;16.398;2023-11-19T10:04:44;8.10;;;6.83;;
50126;SDS011;36024;47.974;16.398;2023-11-19T10:07:15;10.83;;;7.93;;
50126;SDS011;36024;47.974;16.398;2023-11-19T10:09:43;7.67;;;6.87;;
50126;SDS011;36024;47.974;16.398;2023-11-19T10:12:10;7.17;;;6.47;;
50126;SDS011;36024;47.974;16.398;2023-11-19T10:14:44;6.40;;;5.80;;
50126;SDS011;36024;47.974;16.398;2023-11-19T10:17:15;6.47;;;5.70;;
50126;SDS011;36024;47.974;16.398;2023-11-19T10:19:50;6.33;;;5.73;;
50126;SDS011;36024;47.974;16.398;2023-11-19T10:22:18;6.73;;;6.13;;
50126;SDS011;36024;47.974;16.398;2023-11-19T10:24:49;6.67;;;6.07;;
50126;SDS011;36024;47.974;16.398;2023-11-19T10:27:24;6.67;;;6.10;;
50126;SDS011;36024;47.974;16.398;2023-11-19T10:29:55;7.10;;;6.47;;
50126;SDS011;36024;47.974;16.398;2023-11-19T10:32:30;6.57;;;5.97;;
50126;SDS011;36024;47.974;16.398;2023-11-19T10:35:04;7.00;;;6.37;;
50126;SDS011;36024;47.974;16.398;2023-11-19T10:37:33;7.40;;;6.80;;
50126;SDS011;36024;47.974;16.398;2023-11-19T10:40:02;7.00;;;6.40;;
50126;SDS011;36024;47.974;16.398;2023-11-19T10:42:35;7.07;;;6.37;;
50126;SDS011;36024;47.974;16.398;2023-11-19T10:45:03;7.10;;;6.47;;
50126;SDS011;36024;47.974;16.398;2023-11-19T10:47:30;7.47;;;6.83;;
50126;SDS011;36024;47.974;16.398;2023-11-19T10:50:05;8.73;;;7.50;;
50126;SDS011;36024;47.974;16.398;2023-11-19T10:52:35;8.53;;;7.70;;
50126;SDS011;36024;47.974;16.398;2023-11-19T10:55:03;9.70;;;8.70;;
50126;SDS011;36024;47.974;16.398;2023-11-19T10:57:32;10.00;;;8.93;;
50126;SDS011;36024;47.974;16.398;2023-11-19T11:00:05;10.17;;;9.17;;
50126;SDS011;36024;47.974;16.398;2023-11-19T11:02:40;7.50;;;6.80;;
50126;SDS011;36024;47.974;16.398;2023-11-19T11:05:09;6.93;;;6.27;;
50126;SDS011;36024;47.974;16.398;2023-11-19T11:07:42;7.33;;;6.07;;
50126;SDS011;36024;47.974;16.398;2023-11-19T11:10:13;6.80;;;6.17;;
50126;SDS011;36024;47.974;16.398;2023-11-19T11:12:42;7.17;;;6.47;;
50126;SDS011;36024;47.974;16.398;2023-11-19T11:15:11;7.47;;;6.73;;
50126;SDS011;36024;47.974;16.398;2023-11-19T11:17:46;8.27;;;7.47;;
50126;SDS011;36024;47.974;16.398;2023-11-19T11:20:14;8.13;;;7.33;;
50126;SDS011;36024;47.974;16.398;2023-11-19T11:22:53;11.60;;;10.40;;
50126;SDS011;36024;47.974;16.398;2023-11-19T11:28:48;10.30;;;8.30;;
50126;SDS011;36024;47.974;16.398;2023-11-19T11:39:50;8.60;;;7.40;;
50126;SDS011;36024;47.974;16.398;2023-11-19T11:48:06;7.63;;;6.93;;
50126;SDS011;36024;47.974;16.398;2023-11-19T11:50:54;7.10;;;6.43;;
50126;SDS011;36024;47.974;16.398;2023-11-19T11:53:24;6.37;;;5.77;;
50126;SDS011;36024;47.974;16.398;2023-11-19T11:55:55;6.63;;;6.07;;
50126;SDS011;36024;47.974;16.398;2023-11-19T11:58:27;6.60;;;6.00;;
50126;SDS011;36024;47.974;16.398;2023-11-19T12:01:06;5.70;;;5.10;;
50126;SDS011;36024;47.974;16.398;2023-11-19T12:03:36;6.27;;;5.73;;
50126;SDS011;36024;47.974;16.398;2023-11-19T12:06:07;6.13;;;5.63;;
50126;SDS011;36024;47.974;16.398;2023-11-19T12:08:36;7.13;;;5.53;;
50126;SDS011;36024;47.974;16.398;2023-11-19T12:11:16;5.33;;;4.83;;
50126;SDS011;36024;47.974;16.398;2023-11-19T12:13:47;6.47;;;5.73;;
50126;SDS011;36024;47.974;16.398;2023-11-19T12:16:30;6.17;;;5.60;;
50126;SDS011;36024;47.974;16.398;2023-11-19T12:19:04;6.27;;;5.67;;
50126;SDS011;36024;47.974;16.398;2023-11-19T12:21:32;6.13;;;5.53;;
50126;SDS011;36024;47.974;16.398;2023-11-19T12:24:10;6.20;;;5.70;;
50126;SDS011;36024;47.974;16.398;2023-11-19T12:26:39;6.50;;;5.90;;
50126;SDS011;36024;47.974;16.398;2023-11-19T12:29:08;6.63;;;5.97;;
50126;SDS011;36024;47.974;16.398;2023-11-19T12:31:38;6.80;;;6.10;;
50126;SDS011;36024;47.974;16.398;2023-11-19T12:34:12;6.20;;;5.60;;
50126;SDS011;36024;47.974;16.398;2023-11-19T12:36:39;6.43;;;5.73;;
50126;SDS011;36024;47.974;16.398;2023-11-19T12:39:13;6.20;;;5.70;;
50126;SDS011;36024;47.974;16.398;2023-11-19T12:41:50;6.63;;;6.03;;
50126;SDS011;36024;47.974;16.398;2023-11-19T12:47:04;6.57;;;5.97;;
50126;SDS011;36024;47.974;16.398;2023-11-19T12:49:33;6.10;;;5.50;;
50126;SDS011;36024;47.974;16.398;2023-11-19T12:52:11;7.80;;;7.00;;
50126;SDS011;36024;47.974;16.398;2023-11-19T12:54:40;6.93;;;6.23;;
50126;SDS011;36024;47.974;16.398;2023-11-19T12:57:10;7.43;;;6.73;;
50126;SDS011;36024;47.974;16.398;2023-11-19T12:59:39;7.43;;;6.63;;
50126;SDS011;36024;47.974;16.398;2023-11-19T13:02:07;7.57;;;6.77;;
50126;SDS011;36024;47.974;16.398;2023-11-19T13:04:36;7.40;;;6.60;;
50126;SDS011;36024;47.974;16.398;2023-11-19T13:07:08;7.50;;;6.80;;
50126;SDS011;36024;47.974;16.398;2023-11-19T13:09:37;7.77;;;7.07;;
50126;SDS011;36024;47.974;16.398;2023-11-19T13:12:14;7.27;;;6.53;;
50126;SDS011;36024;47.974;16.398;2023-11-19T13:14:43;8.47;;;7.57;;
50126;SDS011;36024;47.974;16.398;2023-11-19T13:17:14;9.60;;;8.70;;
50126;SDS011;36024;47.974;16.398;2023-11-19T13:19:43;9.60;;;8.60;;
50126;SDS011;36024;47.974;16.398;2023-11-19T13:22:10;8.47;;;7.70;;
50126;SDS011;36024;47.974;16.398;2023-11-19T13:24:38;8.53;;;7.73;;
50126;SDS011;36024;47.974;16.398;2023-11-19T13:27:07;8.00;;;7.30;;
50126;SDS011;36024;47.974;16.398;2023-11-19T13:29:38;7.80;;;7.10;;
50126;SDS011;36024;47.974;16.398;2023-11-19T13:32:06;7.83;;;7.13;;
50126;SDS011;36024;47.974;16.398;2023-11-19T13:34:33;8.70;;;7.90;;
50126;SDS011;36024;47.974;16.398;2023-11-19T13:37:02;8.20;;;7.40;;
50126;SDS011;36024;47.974;16.398;2023-11-19T13:39:35;8.47;;;7.67;;
50126;SDS011;36024;47.974;16.398;2023-11-19T13:42:08;9.87;;;8.93;;
50126;SDS011;36024;47.974;16.398;2023-11-19T13:44:45;9.53;;;8.63;;
50126;SDS011;36024;47.974;16.398;2023-11-19T13:47:13;9.17;;;8.20;;
50126;SDS011;36024;47.974;16.398;2023-11-19T13:49:46;15.53;;;13.93;;
50126;SDS011;36024;47.974;16.398;2023-11-19T13:52:13;30.13;;;27.13;;
50126;SDS011;36024;47.974;16.398;2023-11-19T13:54:43;30.80;;;27.90;;
50126;SDS011;36024;47.974;16.398;2023-11-19T13:57:12;21.57;;;19.53;;
50126;SDS011;36024;47.974;16.398;2023-11-19T13:59:39;11.20;;;10.10;;
50126;SDS011;36024;47.974;16.398;2023-11-19T14:02:08;10.93;;;9.37;;
50126;SDS011;36024;47.974;16.398;2023-11-19T14:04:38;13.27;;;10.97;;
50126;SDS011;36024;47.974;16.398;2023-11-19T14:07:08;11.63;;;10.47;;
50126;SDS011;36024;47.974;16.398;2023-11-19T14:09:43;13.47;;;12.27;;
50126;SDS011;36024;47.974;16.398;2023-11-19T14:12:16;13.50;;;12.20;;
50126;SDS011;36024;47.974;16.398;2023-11-19T14:14:44;12.67;;;11.37;;
50126;SDS011;36024;47.974;16.398;2023-11-19T14:17:13;13.33;;;11.97;;
50126;SDS011;36024;47.974;16.398;2023-11-19T14:19:50;13.40;;;10.87;;
50126;SDS011;36024;47.974;16.398;2023-11-19T14:22:19;10.53;;;9.53;;
50126;SDS011;36024;47.974;16.398;2023-11-19T14:24:47;11.13;;;9.47;;
50126;SDS011;36024;47.974;16.398;2023-11-19T14:27:16;10.40;;;9.30;;
50126;SDS011;36024;47.974;16.398;2023-11-19T14:29:48;10.10;;;9.10;;
50126;SDS011;36024;47.974;16.398;2023-11-19T14:32:19;9.30;;;8.40;;
50126;SDS011;36024;47.974;16.398;2023-11-19T14:34:49;9.27;;;8.37;;
50126;SDS011;36024;47.974;16.398;2023-11-19T14:37:16;9.37;;;8.50;;
50126;SDS011;36024;47.974;16.398;2023-11-19T14:39:51;9.47;;;8.10;;
50126;SDS011;36024;47.974;16.398;2023-11-19T14:42:19;8.87;;;7.97;;
50126;SDS011;36024;47.974;16.398;2023-11-19T14:44:49;8.70;;;7.80;;
50126;SDS011;36024;47.974;16.398;2023-11-19T14:47:20;8.77;;;7.83;;
50126;SDS011;36024;47.974;16.398;2023-11-19T14:49:48;8.17;;;7.33;;
50126;SDS011;36024;47.974;16.398;2023-11-19T14:52:17;8.33;;;7.53;;
50126;SDS011;36024;47.974;16.398;2023-11-19T14:54:44;9.20;;;8.30;;
50126;SDS011;36024;47.974;16.398;2023-11-19T14:57:13;10.07;;;8.47;;
50126;SDS011;36024;47.974;16.398;2023-11-19T14:59:41;9.30;;;8.30;;
50126;SDS011;36024;47.974;16.398;2023-11-19T15:02:09;9.57;;;8.57;;
50126;SDS011;36024;47.974;16.398;2023-11-19T15:04:39;11.20;;;9.17;;
50126;SDS011;36024;47.974;16.398;2023-11-19T15:07:09;9.53;;;8.60;;
50126;SDS011;36024;47.974;16.398;2023-11-19T15:09:42;10.23;;;8.50;;